createdAt,value
2023-01-03T00:00:50.816Z,100.00
2023-01-03T00:03:17.478Z,100.00
2023-01-03T00:05:45.596Z,100.00
2023-01-03T00:08:12.526Z,100.00
2023-01-03T00:10:39.762Z,100.00
2023-01-03T00:13:06.336Z,100.00
2023-01-03T00:15:36.429Z,100.00
2023-01-03T00:18:03.606Z,100.00
2023-01-03T00:20:30.145Z,100.00
2023-01-03T00:22:59.898Z,100.00
2023-01-03T00:25:27.119Z,100.00
2023-01-03T00:27:54.242Z,100.00
2023-01-03T00:30:20.923Z,100.00
2023-01-03T00:32:47.543Z,100.00
2023-01-03T00:35:14.142Z,100.00
2023-01-03T00:37:40.717Z,100.00
2023-01-03T00:40:07.785Z,100.00
2023-01-03T00:42:54.320Z,100.00
2023-01-03T00:45:23.409Z,100.00
2023-01-03T00:47:52.063Z,100.00
2023-01-03T00:50:18.677Z,100.00
2023-01-03T00:52:45.242Z,100.00
2023-01-03T00:55:11.999Z,100.00
2023-01-03T00:57:38.546Z,100.00
2023-01-03T01:00:05.467Z,100.00
2023-01-03T01:02:32.126Z,100.00
2023-01-03T01:04:58.874Z,100.00
2023-01-03T01:07:25.458Z,100.00
2023-01-03T01:09:52.020Z,100.00
2023-01-03T01:12:18.573Z,100.00
2023-01-03T01:14:45.173Z,100.00
2023-01-03T01:17:11.736Z,100.00
2023-01-03T01:19:44.153Z,100.00
2023-01-03T01:22:11.695Z,100.00
2023-01-03T01:24:38.370Z,100.00
2023-01-03T01:27:05.399Z,100.00
2023-01-03T01:29:31.967Z,100.00
2023-01-03T01:31:58.528Z,100.00
2023-01-03T01:34:25.128Z,100.00
2023-01-03T01:36:51.667Z,100.00
2023-01-03T01:39:26.935Z,100.00
2023-01-03T01:42:20.397Z,100.00
2023-01-03T01:45:05.375Z,100.00
2023-01-03T01:47:38.471Z,100.00
2023-01-03T01:50:39.030Z,100.00
2023-01-03T01:53:14.858Z,100.00
2023-01-03T01:55:51.439Z,100.00
2023-01-03T01:58:18.284Z,100.00
2023-01-03T02:00:45.458Z,100.00
2023-01-03T02:03:12.763Z,100.00
2023-01-03T02:05:45.169Z,100.00
2023-01-03T02:08:11.796Z,100.00
2023-01-03T02:11:10.118Z,100.00
2023-01-03T02:14:09.636Z,100.00
2023-01-03T02:16:48.696Z,100.00
2023-01-03T02:19:48.806Z,100.00
2023-01-03T02:22:56.987Z,100.00
2023-01-03T02:25:23.504Z,100.00
2023-01-03T02:28:08.457Z,100.00
2023-01-03T02:30:49.190Z,100.00
2023-01-03T02:33:27.660Z,100.00
2023-01-03T02:36:00.204Z,100.00
2023-01-03T02:38:34.193Z,100.00
2023-01-03T02:41:11.229Z,100.00
2023-01-03T02:43:43.661Z,100.00
2023-01-03T02:46:25.661Z,100.00
2023-01-03T02:49:14.136Z,100.00
2023-01-03T02:51:53.403Z,100.00
2023-01-03T02:54:31.994Z,100.00
2023-01-03T02:57:07.159Z,100.00
2023-01-03T02:59:37.550Z,100.00
2023-01-03T03:02:05.946Z,100.00
2023-01-03T03:04:36.260Z,100.00
2023-01-03T03:07:13.232Z,100.00
2023-01-03T03:09:59.812Z,100.00
2023-01-03T03:12:48.088Z,100.00
2023-01-03T03:15:17.689Z,100.00
2023-01-03T03:17:47.159Z,100.00
2023-01-03T03:20:34.999Z,100.00
2023-01-03T03:23:30.956Z,100.00
2023-01-03T03:26:03.813Z,100.00
2023-01-03T03:28:37.650Z,100.00
2023-01-03T03:31:22.992Z,100.00
2023-01-03T03:34:19.680Z,100.00
2023-01-03T03:36:51.363Z,100.00
2023-01-03T03:39:37.510Z,100.00
2023-01-03T03:43:00.292Z,100.00
2023-01-03T03:45:37.706Z,100.00
2023-01-03T03:48:30.093Z,100.00
2023-01-03T03:51:12.697Z,100.00
2023-01-03T03:53:41.520Z,100.00
2023-01-03T03:56:15.392Z,100.00
2023-01-03T03:58:46.177Z,100.00
2023-01-03T04:01:17.413Z,100.00
2023-01-03T04:03:46.229Z,100.00
2023-01-03T04:06:42.073Z,100.00
2023-01-03T04:09:08.902Z,100.00
2023-01-03T04:11:35.815Z,100.00
2023-01-03T04:14:02.376Z,100.00
2023-01-03T04:16:28.982Z,100.00
2023-01-03T04:18:55.657Z,100.00
2023-01-03T04:21:22.200Z,100.00
2023-01-03T04:23:48.798Z,100.00
2023-01-03T04:26:15.678Z,100.00
2023-01-03T04:28:42.294Z,100.00
2023-01-03T04:31:09.131Z,100.00
2023-01-03T04:33:35.759Z,100.00
2023-01-03T04:36:02.309Z,100.00
2023-01-03T04:38:28.903Z,100.00
2023-01-03T04:40:55.469Z,100.00
2023-01-03T04:43:40.708Z,100.00
2023-01-03T04:46:07.344Z,100.00
2023-01-03T04:48:34.011Z,100.00
2023-01-03T04:51:01.359Z,100.00
2023-01-03T04:53:28.184Z,100.00
2023-01-03T04:55:58.531Z,100.00
2023-01-03T04:58:25.516Z,100.00
2023-01-03T05:00:52.166Z,100.00
2023-01-03T05:03:24.031Z,100.00
2023-01-03T05:05:58.621Z,100.00
2023-01-03T05:08:25.187Z,100.00
2023-01-03T05:10:53.764Z,100.00
2023-01-03T05:13:20.434Z,100.00
2023-01-03T05:15:47.080Z,100.00
2023-01-03T05:18:13.702Z,100.00
2023-01-03T05:20:58.765Z,100.00
2023-01-03T05:23:43.869Z,100.00
2023-01-03T05:26:13.756Z,100.00
2023-01-03T05:28:43.475Z,100.00
2023-01-03T05:31:10.191Z,100.00
2023-01-03T05:33:40.903Z,100.00
2023-01-03T05:36:09.018Z,100.00
2023-01-03T05:38:35.791Z,100.00
2023-01-03T05:41:02.581Z,100.00
2023-01-03T05:43:29.148Z,100.00
2023-01-03T05:45:55.819Z,100.00
2023-01-03T05:48:23.007Z,100.00
2023-01-03T05:50:51.030Z,100.00
2023-01-03T05:53:17.975Z,100.00
2023-01-03T05:55:44.691Z,100.00
2023-01-03T05:58:12.820Z,100.00
2023-01-03T06:00:40.014Z,100.00
2023-01-03T06:03:07.489Z,100.00
2023-01-03T06:05:34.129Z,100.00
2023-01-03T06:08:02.439Z,100.00
2023-01-03T06:10:29.293Z,100.00
2023-01-03T06:12:56.709Z,100.00
2023-01-03T06:15:23.401Z,100.00
2023-01-03T06:17:57.866Z,100.00
2023-01-03T06:20:29.079Z,100.00
2023-01-03T06:22:57.421Z,100.00
2023-01-03T06:25:24.634Z,100.00
2023-01-03T06:27:51.230Z,100.00
2023-01-03T06:30:17.815Z,100.00
2023-01-03T06:32:44.607Z,100.00
2023-01-03T06:35:11.703Z,100.00
2023-01-03T06:37:38.621Z,100.00
2023-01-03T06:40:06.193Z,100.00
2023-01-03T06:42:40.163Z,100.00
2023-01-03T06:45:25.972Z,100.00
2023-01-03T06:48:11.365Z,100.00
2023-01-03T06:51:01.644Z,100.00
2023-01-03T06:53:35.051Z,100.00
2023-01-03T06:56:01.941Z,100.00
2023-01-03T06:58:29.048Z,100.00
2023-01-03T07:00:57.695Z,100.00
2023-01-03T07:03:24.541Z,100.00
2023-01-03T07:05:51.564Z,100.00
2023-01-03T07:08:18.243Z,100.00
2023-01-03T07:10:44.825Z,100.00
2023-01-03T07:13:29.865Z,100.00
2023-01-03T07:15:56.399Z,100.00
2023-01-03T07:18:23.032Z,100.00
2023-01-03T07:20:49.730Z,100.00
2023-01-03T07:23:16.361Z,100.00
2023-01-03T07:25:43.203Z,100.00
2023-01-03T07:28:11.939Z,100.00
2023-01-03T07:30:43.670Z,100.00
2023-01-03T07:33:12.391Z,100.00
2023-01-03T07:35:39.116Z,100.00
2023-01-03T07:38:06.325Z,100.00
2023-01-03T07:40:33.191Z,100.00
2023-01-03T07:43:18.249Z,100.00
2023-01-03T07:45:45.611Z,100.00
2023-01-03T07:48:12.582Z,100.00
2023-01-03T07:50:39.816Z,100.00
2023-01-03T07:53:08.453Z,100.00
2023-01-03T07:55:36.994Z,100.00
2023-01-03T07:58:03.905Z,100.00
2023-01-03T08:00:30.955Z,100.00
2023-01-03T08:02:57.656Z,100.00
2023-01-03T08:05:25.030Z,100.00
2023-01-03T08:07:53.125Z,100.00
2023-01-03T08:10:39.639Z,100.00
2023-01-03T08:13:19.014Z,100.00
2023-01-03T08:15:49.588Z,100.00
2023-01-03T08:18:19.653Z,100.00
2023-01-03T08:20:47.399Z,100.00
2023-01-03T08:23:14.184Z,100.00
2023-01-03T08:25:41.088Z,100.00
2023-01-03T08:28:09.608Z,100.00
2023-01-03T08:30:49.720Z,100.00
2023-01-03T08:33:18.585Z,100.00
2023-01-03T08:35:51.057Z,100.00
2023-01-03T08:38:22.631Z,100.00
2023-01-03T08:40:49.284Z,100.00
2023-01-03T08:43:16.429Z,100.00
2023-01-03T08:45:43.150Z,100.00
2023-01-03T08:48:11.141Z,100.00
2023-01-03T08:50:38.069Z,100.00
2023-01-03T08:53:05.866Z,100.00
2023-01-03T08:55:33.713Z,100.00
2023-01-03T08:58:00.460Z,100.00
2023-01-03T09:00:28.659Z,100.00
2023-01-03T09:03:00.132Z,100.00
2023-01-03T09:05:28.823Z,100.00
2023-01-03T09:07:56.130Z,100.00
2023-01-03T09:10:23.179Z,100.00
2023-01-03T09:12:50.113Z,100.00
2023-01-03T09:15:16.816Z,100.00
2023-01-03T09:17:45.210Z,100.00
2023-01-03T09:20:12.639Z,100.00
2023-01-03T09:22:39.226Z,100.00
2023-01-03T09:25:06.531Z,100.00
2023-01-03T09:27:33.063Z,100.00
2023-01-03T09:29:59.873Z,100.00
2023-01-03T09:32:26.517Z,100.00
2023-01-03T09:34:53.136Z,100.00
2023-01-03T09:37:19.734Z,100.00
2023-01-03T09:39:46.311Z,100.00
2023-01-03T09:42:40.345Z,100.00
2023-01-03T09:45:11.576Z,100.00
2023-01-03T09:47:39.555Z,100.00
2023-01-03T09:50:29.632Z,100.00
2023-01-03T09:53:16.830Z,100.00
2023-01-03T09:56:12.571Z,100.00
2023-01-03T09:58:58.451Z,100.00
2023-01-03T10:01:57.367Z,100.00
2023-01-03T10:05:01.848Z,100.00
2023-01-03T10:07:56.202Z,100.00
2023-01-03T10:10:46.979Z,100.00
2023-01-03T10:13:32.055Z,100.00
2023-01-03T10:16:17.829Z,100.00
2023-01-03T10:19:03.244Z,100.00
2023-01-03T10:21:45.550Z,100.00
2023-01-03T10:24:29.454Z,95.27
2023-01-03T10:27:15.398Z,91.50
2023-01-03T10:29:44.161Z,80.47
2023-01-03T10:32:35.169Z,79.26
2023-01-03T10:35:04.675Z,77.68
2023-01-03T10:37:31.267Z,72.63
2023-01-03T10:40:04.905Z,72.05
2023-01-03T10:42:35.313Z,77.28
2023-01-03T10:45:05.466Z,75.21
2023-01-03T10:47:32.204Z,70.18
2023-01-03T10:50:03.181Z,67.25
2023-01-03T10:52:34.425Z,69.15
2023-01-03T10:55:06.008Z,67.91
2023-01-03T10:57:55.536Z,63.29
2023-01-03T11:00:31.735Z,62.49
2023-01-03T11:03:16.513Z,60.60
2023-01-03T11:05:49.074Z,57.63
2023-01-03T11:08:35.177Z,52.22
2023-01-03T11:11:01.862Z,54.61
2023-01-03T11:13:38.516Z,51.71
2023-01-03T11:16:15.820Z,53.83
2023-01-03T11:18:43.871Z,51.63
2023-01-03T11:21:23.664Z,53.27
2023-01-03T11:24:16.393Z,55.78
2023-01-03T11:26:45.958Z,55.64
2023-01-03T11:29:39.802Z,57.96
2023-01-03T11:32:25.294Z,53.96
2023-01-03T11:35:22.751Z,53.80
2023-01-03T11:38:18.783Z,54.07
2023-01-03T11:41:00.277Z,53.98
2023-01-03T11:43:35.791Z,54.05
2023-01-03T11:46:06.439Z,55.49
2023-01-03T11:49:03.385Z,57.66
2023-01-03T11:51:35.952Z,58.79
2023-01-03T11:54:07.276Z,60.24
2023-01-03T11:56:44.770Z,60.72
2023-01-03T11:59:30.161Z,61.45
2023-01-03T12:02:30.780Z,62.34
2023-01-03T12:05:00.444Z,62.95
2023-01-03T12:07:48.595Z,63.35
2023-01-03T12:10:49.432Z,63.50
2023-01-03T12:13:39.289Z,64.09
2023-01-03T12:16:29.141Z,64.41
2023-01-03T12:19:05.652Z,65.17
2023-01-03T12:21:48.254Z,65.75
2023-01-03T12:24:31.970Z,65.79
2023-01-03T12:27:10.571Z,66.63
2023-01-03T12:29:51.200Z,66.82
2023-01-03T12:32:49.427Z,67.34
2023-01-03T12:35:36.997Z,67.06
2023-01-03T12:38:06.271Z,68.08
2023-01-03T12:40:39.596Z,68.24
2023-01-03T12:43:08.902Z,68.20
2023-01-03T12:45:38.903Z,68.76
2023-01-03T12:48:11.245Z,68.32
2023-01-03T12:50:47.597Z,68.80
2023-01-03T12:53:52.987Z,69.14
2023-01-03T12:56:42.598Z,69.50
2023-01-03T12:59:36.909Z,69.34
2023-01-03T13:02:38.930Z,69.68
2023-01-03T13:05:14.698Z,69.63
2023-01-03T13:07:48.058Z,69.82
2023-01-03T13:10:19.107Z,70.11
2023-01-03T13:12:54.479Z,70.12
2023-01-03T13:15:36.560Z,70.14
2023-01-03T13:18:23.601Z,70.64
2023-01-03T13:20:54.188Z,70.72
2023-01-03T13:24:04.709Z,71.18
2023-01-03T13:26:31.549Z,71.28
2023-01-03T13:29:39.880Z,71.20
2023-01-03T13:32:20.270Z,71.27
2023-01-03T13:34:56.205Z,71.44
2023-01-03T13:37:43.378Z,71.44
2023-01-03T13:40:18.573Z,71.58
2023-01-03T13:42:45.661Z,71.11
2023-01-03T13:45:14.965Z,71.68
2023-01-03T13:47:50.392Z,71.81
2023-01-03T13:50:29.299Z,71.66
2023-01-03T13:52:57.367Z,71.88
2023-01-03T13:55:54.307Z,71.76
2023-01-03T13:58:40.296Z,71.99
2023-01-03T14:01:34.812Z,72.26
2023-01-03T14:04:27.756Z,72.45
2023-01-03T14:07:19.500Z,72.55
2023-01-03T14:09:57.912Z,72.20
2023-01-03T14:12:50.549Z,73.35
2023-01-03T14:15:26.495Z,74.17
2023-01-03T14:18:00.750Z,74.70
2023-01-03T14:20:33.059Z,75.50
2023-01-03T14:23:31.819Z,76.43
2023-01-03T14:25:54.592Z,76.37
2023-01-03T14:28:33.852Z,76.51
2023-01-03T14:31:05.483Z,77.19
2023-01-03T14:33:59.578Z,77.54
2023-01-03T14:36:26.786Z,77.67
2023-01-03T14:38:58.983Z,77.67
2023-01-03T14:41:31.562Z,77.88
2023-01-03T14:44:07.483Z,77.69
2023-01-03T14:46:36.232Z,78.08
2023-01-03T14:49:07.214Z,78.46
2023-01-03T14:51:36.581Z,78.46
2023-01-03T14:54:05.073Z,78.46
2023-01-03T14:56:32.473Z,78.96
2023-01-03T14:59:00.892Z,78.87
2023-01-03T15:01:29.067Z,78.75
2023-01-03T15:03:56.249Z,79.43
2023-01-03T15:06:28.681Z,79.10
2023-01-03T15:09:00.796Z,79.50
2023-01-03T15:11:56.254Z,79.40
2023-01-03T15:14:26.132Z,79.22
2023-01-03T15:17:01.638Z,79.66
2023-01-03T15:19:30.583Z,79.39
2023-01-03T15:22:25.729Z,79.37
2023-01-03T15:25:04.717Z,79.84
2023-01-03T15:27:38.195Z,79.41
2023-01-03T15:30:22.417Z,79.54
2023-01-03T15:33:02.681Z,80.02
2023-01-03T15:35:40.867Z,80.29
2023-01-03T15:38:28.495Z,80.24
2023-01-03T15:40:55.215Z,80.85
2023-01-03T15:43:29.999Z,80.92
2023-01-03T15:46:04.104Z,80.54
2023-01-03T15:48:36.770Z,80.86
2023-01-03T15:51:05.145Z,81.12
2023-01-03T15:53:43.241Z,80.86
2023-01-03T15:56:18.992Z,80.71
2023-01-03T15:58:46.539Z,80.26
2023-01-03T16:01:13.866Z,80.37
2023-01-03T16:03:40.952Z,79.85
2023-01-03T16:06:07.607Z,79.40
2023-01-03T16:08:37.659Z,79.22
2023-01-03T16:11:10.731Z,78.55
2023-01-03T16:13:42.369Z,78.23
2023-01-03T16:16:11.091Z,78.10
2023-01-03T16:18:42.378Z,77.75
2023-01-03T16:21:09.094Z,78.13
2023-01-03T16:23:35.729Z,78.18
2023-01-03T16:26:02.548Z,78.40
2023-01-03T16:28:29.493Z,78.89
2023-01-03T16:31:19.132Z,78.59
2023-01-03T16:33:47.671Z,79.09
2023-01-03T16:36:30.258Z,78.91
2023-01-03T16:38:57.066Z,79.44
2023-01-03T16:41:23.844Z,80.22
2023-01-03T16:43:50.503Z,80.08
2023-01-03T16:46:21.128Z,80.47
2023-01-03T16:48:52.862Z,81.25
2023-01-03T16:51:24.822Z,81.49
2023-01-03T16:53:52.890Z,81.97
2023-01-03T16:56:19.595Z,82.31
2023-01-03T16:58:46.218Z,82.97
2023-01-03T17:01:13.794Z,83.25
2023-01-03T17:03:42.199Z,83.19
2023-01-03T17:06:38.006Z,83.80
2023-01-03T17:09:21.420Z,83.56
2023-01-03T17:11:48.445Z,83.53
2023-01-03T17:14:21.690Z,84.96
2023-01-03T17:16:49.437Z,85.20
2023-01-03T17:20:19.204Z,85.39
2023-01-03T17:22:23.247Z,86.37
2023-01-03T17:24:51.788Z,86.61
2023-01-03T17:27:32.059Z,87.53
2023-01-03T17:30:02.742Z,88.33
2023-01-03T17:32:30.166Z,88.30
2023-01-03T17:34:56.757Z,88.13
2023-01-03T17:37:23.540Z,88.40
2023-01-03T17:39:55.970Z,87.94
2023-01-03T17:42:23.900Z,87.98
2023-01-03T17:45:09.874Z,88.42
2023-01-03T17:48:00.476Z,88.52
2023-01-03T17:50:29.935Z,88.11
2023-01-03T17:52:58.580Z,88.46
2023-01-03T17:55:29.138Z,88.64
2023-01-03T17:57:56.836Z,88.71
2023-01-03T18:00:27.102Z,88.59
2023-01-03T18:02:54.696Z,88.82
2023-01-03T18:05:27.877Z,88.91
2023-01-03T18:08:00.136Z,89.46
2023-01-03T18:10:46.851Z,89.05
2023-01-03T18:13:25.148Z,88.78
2023-01-03T18:15:52.496Z,88.80
2023-01-03T18:18:22.270Z,88.99
2023-01-03T18:20:49.496Z,89.39
2023-01-03T18:23:31.750Z,90.29
2023-01-03T18:26:02.009Z,90.99
2023-01-03T18:28:29.515Z,90.30
2023-01-03T18:30:57.042Z,90.34
2023-01-03T18:33:24.110Z,90.27
2023-01-03T18:35:52.411Z,90.76
2023-01-03T18:38:22.219Z,90.29
2023-01-03T18:40:48.824Z,91.50
2023-01-03T18:43:17.919Z,91.04
2023-01-03T18:45:44.708Z,91.85
2023-01-03T18:48:20.062Z,91.26
2023-01-03T18:50:55.623Z,91.31
2023-01-03T18:53:28.425Z,91.99
2023-01-03T18:55:55.164Z,93.23
2023-01-03T18:58:35.440Z,93.18
2023-01-03T19:01:03.184Z,94.03
2023-01-03T19:03:32.247Z,93.23
2023-01-03T19:06:00.903Z,93.39
2023-01-03T19:08:31.947Z,92.86
2023-01-03T19:11:08.202Z,94.40
2023-01-03T19:13:50.393Z,94.10
2023-01-03T19:16:29.838Z,93.82
2023-01-03T19:18:57.213Z,93.48
2023-01-03T19:21:26.210Z,92.95
2023-01-03T19:24:04.258Z,93.13
2023-01-03T19:26:43.706Z,93.90
2023-01-03T19:29:36.569Z,94.23
2023-01-03T19:32:16.270Z,94.93
2023-01-03T19:34:42.867Z,94.78
2023-01-03T19:37:10.123Z,95.64
2023-01-03T19:39:37.881Z,96.82
2023-01-03T19:42:25.284Z,97.00
2023-01-03T19:44:53.240Z,97.46
2023-01-03T19:47:20.758Z,98.10
2023-01-03T19:49:48.179Z,98.71
2023-01-03T19:52:16.546Z,98.59
2023-01-03T19:54:43.739Z,98.80
2023-01-03T19:57:21.147Z,99.05
2023-01-03T19:59:53.462Z,98.84
2023-01-03T20:02:40.939Z,99.17
2023-01-03T20:05:34.991Z,99.93
2023-01-03T20:08:11.580Z,99.98
2023-01-03T20:10:41.104Z,99.85
2023-01-03T20:13:16.179Z,100.00
2023-01-03T20:15:44.278Z,100.00
2023-01-03T20:18:30.147Z,100.00
2023-01-03T20:21:00.123Z,99.87
2023-01-03T20:23:32.997Z,100.00
2023-01-03T20:25:59.835Z,100.00
2023-01-03T20:28:31.997Z,100.00
2023-01-03T20:31:00.530Z,100.00
2023-01-03T20:33:28.062Z,100.00
2023-01-03T20:36:17.629Z,100.00
2023-01-03T20:38:48.319Z,100.00
2023-01-03T20:41:17.585Z,100.00
2023-01-03T20:43:45.098Z,100.00
2023-01-03T20:46:20.114Z,100.00
2023-01-03T20:48:55.295Z,100.00
2023-01-03T20:51:22.262Z,100.00
2023-01-03T20:53:54.119Z,100.00
2023-01-03T20:56:21.300Z,100.00
2023-01-03T20:58:48.529Z,100.00
2023-01-03T21:01:15.175Z,100.00
2023-01-03T21:03:41.942Z,100.00
2023-01-03T21:06:22.798Z,100.00
2023-01-03T21:08:55.199Z,100.00
2023-01-03T21:11:23.413Z,100.00
2023-01-03T21:13:50.218Z,99.99
2023-01-03T21:16:29.551Z,99.92
2023-01-03T21:19:01.527Z,100.00
2023-01-03T21:21:30.293Z,100.00
2023-01-03T21:23:56.922Z,100.00
2023-01-03T21:26:23.612Z,100.00
2023-01-03T21:28:50.185Z,100.00
2023-01-03T21:31:22.007Z,100.00
2023-01-03T21:33:49.164Z,100.00
2023-01-03T21:36:24.473Z,100.00
2023-01-03T21:38:51.919Z,99.63
2023-01-03T21:41:24.361Z,99.60
2023-01-03T21:43:54.718Z,99.58
2023-01-03T21:46:23.797Z,98.97
2023-01-03T21:48:50.785Z,98.74
2023-01-03T21:51:25.765Z,98.00
2023-01-03T21:53:59.975Z,97.52
2023-01-03T21:56:26.540Z,97.42
2023-01-03T21:58:53.172Z,97.95
2023-01-03T22:01:24.442Z,97.62
2023-01-03T22:04:10.682Z,98.10
2023-01-03T22:06:37.911Z,97.78
2023-01-03T22:09:06.245Z,97.41
2023-01-03T22:11:33.019Z,97.67
2023-01-03T22:14:00.842Z,96.88
2023-01-03T22:16:27.591Z,96.47
2023-01-03T22:18:54.215Z,94.89
2023-01-03T22:21:21.345Z,94.21
2023-01-03T22:23:47.965Z,93.76
2023-01-03T22:26:16.266Z,93.96
2023-01-03T22:28:47.036Z,92.16
2023-01-03T22:31:18.210Z,92.07
2023-01-03T22:33:47.114Z,91.80
2023-01-03T22:36:14.495Z,91.24
2023-01-03T22:38:42.108Z,91.37
2023-01-03T22:41:10.128Z,91.23
2023-01-03T22:43:37.658Z,91.11
2023-01-03T22:46:13.401Z,90.88
2023-01-03T22:48:40.387Z,90.17
2023-01-03T22:51:10.489Z,89.86
2023-01-03T22:53:40.136Z,89.94
2023-01-03T22:56:09.193Z,90.36
2023-01-03T22:58:40.961Z,89.82
2023-01-03T23:01:15.701Z,90.11
2023-01-03T23:03:43.350Z,89.76
2023-01-03T23:06:17.908Z,89.66
2023-01-03T23:08:45.520Z,89.34
2023-01-03T23:11:34.919Z,88.70
2023-01-03T23:14:07.579Z,88.05
2023-01-03T23:16:34.471Z,87.86
2023-01-03T23:19:07.159Z,87.36
2023-01-03T23:21:34.294Z,87.54
2023-01-03T23:24:01.343Z,87.59
2023-01-03T23:26:27.976Z,87.29
2023-01-03T23:28:59.435Z,86.98
2023-01-03T23:31:27.661Z,86.59
2023-01-03T23:33:59.418Z,86.57
2023-01-03T23:36:26.930Z,86.57
2023-01-03T23:38:54.269Z,86.54
2023-01-03T23:41:22.674Z,86.37
2023-01-03T23:43:50.123Z,86.59
2023-01-03T23:46:20.317Z,86.28
2023-01-03T23:48:47.463Z,86.43
2023-01-03T23:51:15.086Z,86.41
2023-01-03T23:53:43.311Z,86.07
2023-01-03T23:56:13.566Z,86.11
2023-01-03T23:58:40.493Z,86.32
